Stations météo

réclame
Mon MeteoGroup
Reinosa, Espagne (8032): Température de l'air & dewpoint: 12.01.2020 14:00:00 - 18.01.2020 14:00:00 (CET)Reinosa, Espagne (8032): Vitesse du vent & gusts: 12.01.2020 14:00:00 - 18.01.2020 14:00:00 (CET)Reinosa, Espagne (8032): Direction du vent: 12.01.2020 14:00:00 - 18.01.2020 14:00:00 (CET)Reinosa, Espagne (8032): Quantités de précipitations: 12.01.2020 14:00:00 - 18.01.2020 14:00:00 (CET)
Date & Time tt [°C] td [°C] ff [km/h] ff [knt] fx [km/h] fx [knt] dd rr [mm]
18.01.2020 14:00:00 - - - - - - - -
18.01.2020 13:00:00 8,2 2,9 10 6 44 24 S -
18.01.2020 12:00:00 5,4 1,7 16 9 40 22 SSE 0,0
18.01.2020 11:00:00 4,3 0,6 11 6 31 17 S 0,0
18.01.2020 10:00:00 4,1 -0,3 16 8 33 18 S 0,0
18.01.2020 09:00:00 4,3 -1,2 13 7 32 17 W 0,0
18.01.2020 08:00:00 4,7 -1,7 8 4 31 17 S 0,0
18.01.2020 07:00:00 4,5 -2,0 13 7 32 18 SSW -
18.01.2020 06:00:00 3,4 -2,0 18 10 32 18 S 0,0
18.01.2020 05:00:00 3,9 -2,2 19 11 28 15 SSW 0,0
18.01.2020 04:00:00 4,5 -2,2 12 6 23 13 S 0,0
18.01.2020 03:00:00 5,2 -3,0 10 5 23 12 W 0,0
18.01.2020 02:00:00 1,7 0,0 3 2 16 9 S 0,0
18.01.2020 01:00:00 2,7 0,9 4 2 16 8 WSW -
18.01.2020 00:00:00 2,0 0,6 3 1 13 7 SW 0,0
17.01.2020 23:00:00 2,5 0,6 8 4 20 11 SE 0,0
17.01.2020 22:00:00 1,7 0,4 3 2 6 4 SSE 0,0
17.01.2020 21:00:00 3,0 1,3 4 2 13 7 SE 0,0
17.01.2020 20:00:00 3,4 1,5 6 3 15 8 E 0,0
17.01.2020 19:00:00 4,0 1,7 11 6 19 10 E -
17.01.2020 18:00:00 4,5 1,1 11 6 18 10 ENE 0,0
17.01.2020 17:00:00 5,0 0,6 13 7 24 13 NE 0,0
17.01.2020 16:00:00 7,0 1,9 14 7 22 12 ENE 0,0
17.01.2020 15:00:00 6,8 2,3 12 6 17 9 ENE 0,0
17.01.2020 14:00:00 5,9 2,1 4 2 15 8 E 0,0
17.01.2020 13:00:00 5,2 2,7 9 5 17 9 E -
17.01.2020 12:00:00 5,9 3,2 10 5 17 9 E 0,0
17.01.2020 11:00:00 4,7 3,6 6 3 14 8 E 0,0
17.01.2020 10:00:00 4,4 3,6 6 3 13 7 ENE 0,0
17.01.2020 09:00:00 2,5 1,5 5 3 17 9 SE 0,0
17.01.2020 08:00:00 4,1 0,6 3 1 18 10 S 0,0
17.01.2020 07:00:00 4,6 1,9 6 3 16 8 SW -
17.01.2020 06:00:00 4,8 2,1 7 4 17 9 SSW 0,0
17.01.2020 05:00:00 5,4 2,5 8 4 20 11 SW 0,1
17.01.2020 04:00:00 6,2 3,9 12 6 32 17 WSW 0,9
17.01.2020 03:00:00 6,7 3,8 15 8 38 21 SW 0,1
17.01.2020 02:00:00 7,2 3,2 18 10 48 26 SW 0,0
17.01.2020 01:00:00 7,5 3,6 24 13 56 30 SW -
17.01.2020 00:00:00 7,6 3,9 31 17 73 39 SW 0,1
16.01.2020 23:00:00 7,2 4,3 32 18 67 36 SSW 0,8
16.01.2020 22:00:00 7,2 3,4 23 12 54 29 SSW 0,1
16.01.2020 21:00:00 8,1 2,3 16 9 73 40 SW 0,1
16.01.2020 20:00:00 8,8 0,6 23 12 56 30 SSW 0,0
16.01.2020 19:00:00 9,0 0,6 19 10 56 30 SW -
16.01.2020 18:00:00 9,9 1,3 10 5 78 42 SSE 0,0
16.01.2020 17:00:00 10,4 1,5 22 12 69 37 S 0,0
16.01.2020 16:00:00 10,8 2,1 13 7 61 33 S 0,0
16.01.2020 15:00:00 10,7 1,7 26 14 66 36 SSW 0,0
16.01.2020 14:00:00 10,5 3,9 19 11 74 40 SSW 0,0
16.01.2020 13:00:00 9,0 6,2 21 11 76 41 S -
16.01.2020 12:00:00 9,8 5,8 37 20 65 35 SSW 0,0
16.01.2020 11:00:00 9,0 6,1 21 11 51 27 SSW 0,0
16.01.2020 10:00:00 8,7 5,9 28 15 59 32 SW 0,0
16.01.2020 09:00:00 8,3 5,9 37 20 72 39 SW 0,0
16.01.2020 08:00:00 8,7 6,2 38 21 65 35 SW 0,0
16.01.2020 07:00:00 8,5 6,4 30 16 64 35 SW -
16.01.2020 06:00:00 8,4 6,7 25 13 48 26 SSW 0,0
16.01.2020 05:00:00 8,7 6,7 24 13 44 24 SW 0,0
16.01.2020 04:00:00 8,8 7,1 21 11 61 33 SSW 0,0
16.01.2020 03:00:00 9,2 6,7 28 15 53 29 SW 0,0
16.01.2020 02:00:00 8,7 6,5 23 12 45 24 SSW 0,0
16.01.2020 01:00:00 9,1 6,4 21 12 41 22 SW -
16.01.2020 00:00:00 9,1 4,6 6 4 36 19 SSE 0,0
15.01.2020 23:00:00 8,7 4,5 20 11 39 21 SSW 0,0
15.01.2020 22:00:00 8,7 3,0 16 8 34 18 SSW 0,0
15.01.2020 21:00:00 8,3 3,4 12 7 37 20 SSW 0,0
15.01.2020 20:00:00 8,6 4,3 12 6 30 16 SSW 0,0
15.01.2020 19:00:00 8,5 4,1 11 6 34 18 SSW -
15.01.2020 18:00:00 8,3 3,9 16 9 35 19 SSW 0,0
15.01.2020 17:00:00 8,7 3,8 13 7 39 21 SSW 0,0
15.01.2020 16:00:00 9,8 3,2 22 12 36 20 WSW 0,0
15.01.2020 15:00:00 8,9 4,1 16 9 38 20 SW 0,1
15.01.2020 14:00:00 8,9 5,0 10 6 23 12 SSW 0,0
15.01.2020 13:00:00 8,3 4,6 6 3 39 21 E -
15.01.2020 12:00:00 7,2 4,8 11 6 46 25 S 0,1
15.01.2020 11:00:00 7,1 4,6 20 11 46 25 SW 0,6
15.01.2020 10:00:00 6,9 4,6 23 12 49 27 SW 0,3
15.01.2020 09:00:00 6,7 4,3 23 12 67 36 SW 0,0
15.01.2020 08:00:00 6,5 3,9 34 18 70 38 SW 0,0
15.01.2020 07:00:00 6,4 4,1 37 20 80 43 SSW -
15.01.2020 06:00:00 6,6 4,3 35 19 69 38 SSW 0,2
15.01.2020 05:00:00 6,6 4,3 25 14 66 36 SSW 0,3
15.01.2020 04:00:00 6,7 4,5 24 13 72 39 S 0,9
15.01.2020 03:00:00 6,7 4,1 14 8 59 32 SW 0,2
15.01.2020 02:00:00 6,6 3,2 21 12 57 31 SSW 0,3
15.01.2020 01:00:00 7,0 3,4 17 9 50 27 SSW -
15.01.2020 00:00:00 6,3 3,6 18 10 53 29 SW 0,2
14.01.2020 23:00:00 6,1 3,2 18 10 51 28 S 0,1
14.01.2020 22:00:00 6,4 2,1 26 14 49 27 SSW 0,0
14.01.2020 21:00:00 6,8 2,7 28 15 56 31 SW 0,0
14.01.2020 20:00:00 7,1 2,5 27 15 58 31 SW 0,0
14.01.2020 19:00:00 6,9 2,1 22 12 51 28 SW -
14.01.2020 18:00:00 7,1 2,3 19 10 48 26 SSW 0,0
14.01.2020 17:00:00 7,1 1,9 26 14 64 35 SSW 0,0
14.01.2020 16:00:00 7,6 2,1 20 11 49 27 SSW 0,0
14.01.2020 15:00:00 7,9 1,3 16 9 40 21 SW 0,0
14.01.2020 14:00:00 8,3 1,5 13 7 56 30 SSW 0,0
14.01.2020 13:00:00 5,7 1,7 19 10 40 21 SSW -
14.01.2020 12:00:00 4,7 1,3 18 10 39 21 SW 0,0
14.01.2020 11:00:00 4,6 1,1 21 11 48 26 SSW 0,0
14.01.2020 10:00:00 4,4 0,9 23 12 67 36 SSW 0,0
14.01.2020 09:00:00 3,9 0,4 39 21 65 35 S 0,0
14.01.2020 08:00:00 4,0 0,6 23 12 49 26 SSE 0,0
14.01.2020 07:00:00 4,4 0,9 32 18 58 31 SSW -
14.01.2020 06:00:00 3,7 0,2 19 10 51 28 S 0,0
14.01.2020 05:00:00 4,2 0,4 22 12 53 29 S 0,0
14.01.2020 04:00:00 3,2 0,6 30 16 56 30 S 0,0
14.01.2020 03:00:00 2,8 0,0 27 15 51 27 S 0,0
14.01.2020 02:00:00 3,2 -0,5 34 18 65 35 S 0,0
14.01.2020 01:00:00 3,8 -2,2 23 13 41 22 SSE -
14.01.2020 00:00:00 4,6 -2,5 14 8 52 28 S 0,0
13.01.2020 23:00:00 1,9 -4,2 26 14 48 26 S 0,0
13.01.2020 22:00:00 2,6 -3,9 28 15 44 24 S 0,0
13.01.2020 21:00:00 1,2 -4,8 23 12 48 26 S 0,0
13.01.2020 20:00:00 4,1 -4,8 22 12 50 27 SSW 0,0
13.01.2020 19:00:00 3,1 -6,0 20 11 40 21 SSW -
13.01.2020 18:00:00 5,3 -7,1 31 17 49 27 SW 0,0
13.01.2020 17:00:00 7,1 -6,4 29 16 49 26 WSW 0,0
13.01.2020 16:00:00 7,9 -4,2 4 2 41 22 S 0,0
13.01.2020 15:00:00 5,5 -6,0 19 10 38 21 SSW 0,0
13.01.2020 14:00:00 6,3 -5,4 18 10 41 22 SSW 0,0
13.01.2020 13:00:00 3,7 -4,2 30 16 40 21 SSE -
13.01.2020 12:00:00 2,4 -4,8 9 5 29 16 S 0,0
13.01.2020 11:00:00 0,6 -5,1 10 5 32 17 SSW 0,0
13.01.2020 10:00:00 -0,3 -5,1 3 1 15 8 WNW 0,0
13.01.2020 09:00:00 -4,1 -5,4 5 3 11 6 W 0,0
13.01.2020 08:00:00 -4,9 -6,0 4 2 10 5 W 0,0
13.01.2020 07:00:00 -4,7 -6,0 4 2 8 4 NW -
13.01.2020 06:00:00 -3,9 -5,1 4 2 9 5 WNW 0,0
13.01.2020 05:00:00 -4,2 -5,4 5 3 9 5 W 0,0
13.01.2020 04:00:00 -4,5 -5,7 4 2 8 4 W 0,0
13.01.2020 03:00:00 -3,6 -4,8 2 1 8 4 WNW 0,0
13.01.2020 02:00:00 -3,0 -4,2 2 1 4 2 W 0,0
13.01.2020 01:00:00 -2,5 -3,6 1 1 9 5 W -
13.01.2020 00:00:00 -1,8 -3,0 1 1 8 5 WSW 0,0
12.01.2020 23:00:00 -1,8 -3,0 4 2 8 4 WNW 0,0
12.01.2020 22:00:00 -0,6 -2,2 2 1 4 2 N 0,0
12.01.2020 21:00:00 1,7 -0,5 2 1 8 4 W 0,0
12.01.2020 20:00:00 2,4 0,0 4 2 9 5 SSW 0,0
12.01.2020 19:00:00 2,6 -1,0 3 1 7 4 SW -
12.01.2020 18:00:00 7,3 1,3 3 2 12 6 S 0,0
12.01.2020 17:00:00 9,0 1,5 9 5 17 9 ENE 0,0
12.01.2020 16:00:00 10,3 1,7 12 7 19 11 ENE 0,0
12.01.2020 15:00:00 10,7 3,0 12 7 17 9 ENE 0,0
12.01.2020 14:00:00 10,1 2,5 7 4 11 6 E 0,0

tt = Température de l'air
td = dewpoint
ff = Vitesse du vent
fx = gusts
dd = Direction du vent
rr = Quantités de précipitations

stations d'obs. à proximité